sensor_id;sensor_type;location;lat;lon;timestamp;P1;durP1;ratioP1;P2;durP2;ratioP2
179;SDS011;78;48.788;9.010;2023-05-10T00:00:26;14.23;;;1.90;;
179;SDS011;78;48.788;9.010;2023-05-10T00:02:52;31.53;;;1.80;;
179;SDS011;78;48.788;9.010;2023-05-10T00:05:18;32.83;;;2.20;;
179;SDS011;78;48.788;9.010;2023-05-10T00:07:44;16.70;;;1.73;;
179;SDS011;78;48.788;9.010;2023-05-10T00:10:10;23.43;;;2.20;;
179;SDS011;78;48.788;9.010;2023-05-10T00:12:36;15.10;;;1.93;;
179;SDS011;78;48.788;9.010;2023-05-10T00:15:02;15.40;;;1.60;;
179;SDS011;78;48.788;9.010;2023-05-10T00:17:29;13.03;;;1.50;;
179;SDS011;78;48.788;9.010;2023-05-10T00:19:55;14.47;;;1.60;;
179;SDS011;78;48.788;9.010;2023-05-10T00:22:21;13.30;;;1.57;;
179;SDS011;78;48.788;9.010;2023-05-10T00:24:47;13.17;;;1.60;;
179;SDS011;78;48.788;9.010;2023-05-10T00:27:13;15.60;;;1.60;;
179;SDS011;78;48.788;9.010;2023-05-10T00:29:39;13.80;;;1.50;;
179;SDS011;78;48.788;9.010;2023-05-10T00:32:05;13.90;;;1.60;;
179;SDS011;78;48.788;9.010;2023-05-10T00:34:31;16.00;;;1.57;;
179;SDS011;78;48.788;9.010;2023-05-10T00:36:57;16.23;;;1.60;;
179;SDS011;78;48.788;9.010;2023-05-10T00:39:23;12.87;;;1.40;;
179;SDS011;78;48.788;9.010;2023-05-10T00:41:49;13.13;;;1.50;;
179;SDS011;78;48.788;9.010;2023-05-10T00:44:15;12.93;;;1.47;;
179;SDS011;78;48.788;9.010;2023-05-10T00:46:41;13.20;;;1.60;;
179;SDS011;78;48.788;9.010;2023-05-10T00:49:07;15.17;;;1.50;;
179;SDS011;78;48.788;9.010;2023-05-10T00:51:33;13.03;;;1.50;;
179;SDS011;78;48.788;9.010;2023-05-10T00:53:59;12.93;;;1.50;;
179;SDS011;78;48.788;9.010;2023-05-10T00:56:25;14.27;;;1.50;;
179;SDS011;78;48.788;9.010;2023-05-10T00:58:53;13.50;;;1.50;;
179;SDS011;78;48.788;9.010;2023-05-10T01:01:19;13.70;;;1.50;;
179;SDS011;78;48.788;9.010;2023-05-10T01:03:45;14.37;;;1.50;;
179;SDS011;78;48.788;9.010;2023-05-10T01:06:12;15.40;;;1.50;;
179;SDS011;78;48.788;9.010;2023-05-10T01:08:39;13.03;;;1.40;;
179;SDS011;78;48.788;9.010;2023-05-10T01:11:06;13.70;;;1.50;;
179;SDS011;78;48.788;9.010;2023-05-10T01:13:36;14.20;;;1.50;;
179;SDS011;78;48.788;9.010;2023-05-10T01:16:03;12.93;;;1.50;;
179;SDS011;78;48.788;9.010;2023-05-10T01:18:29;14.70;;;1.60;;
179;SDS011;78;48.788;9.010;2023-05-10T01:21:01;16.90;;;1.60;;
179;SDS011;78;48.788;9.010;2023-05-10T01:36:05;16.00;;;2.00;;
179;SDS011;78;48.788;9.010;2023-05-10T01:38:53;13.53;;;1.73;;
179;SDS011;78;48.788;9.010;2023-05-10T01:44:20;13.07;;;1.60;;
179;SDS011;78;48.788;9.010;2023-05-10T01:46:53;13.40;;;1.60;;
179;SDS011;78;48.788;9.010;2023-05-10T01:49:26;13.50;;;1.80;;
179;SDS011;78;48.788;9.010;2023-05-10T01:52:04;17.67;;;1.73;;
179;SDS011;78;48.788;9.010;2023-05-10T01:54:32;23.33;;;2.00;;
179;SDS011;78;48.788;9.010;2023-05-10T01:57:03;15.57;;;1.70;;
179;SDS011;78;48.788;9.010;2023-05-10T01:59:31;13.70;;;1.90;;
179;SDS011;78;48.788;9.010;2023-05-10T02:02:05;18.23;;;1.70;;
179;SDS011;78;48.788;9.010;2023-05-10T02:04:31;14.33;;;1.80;;
179;SDS011;78;48.788;9.010;2023-05-10T02:06:59;15.70;;;1.80;;
179;SDS011;78;48.788;9.010;2023-05-10T02:09:26;13.63;;;1.67;;
179;SDS011;78;48.788;9.010;2023-05-10T02:11:53;13.47;;;1.80;;
179;SDS011;78;48.788;9.010;2023-05-10T02:14:19;15.53;;;1.80;;
179;SDS011;78;48.788;9.010;2023-05-10T02:16:46;16.10;;;2.50;;
179;SDS011;78;48.788;9.010;2023-05-10T02:19:13;15.53;;;1.77;;
179;SDS011;78;48.788;9.010;2023-05-10T02:21:39;13.60;;;2.07;;
179;SDS011;78;48.788;9.010;2023-05-10T02:24:06;13.20;;;1.70;;
179;SDS011;78;48.788;9.010;2023-05-10T02:26:33;13.37;;;1.90;;
179;SDS011;78;48.788;9.010;2023-05-10T02:29:00;13.90;;;2.00;;
179;SDS011;78;48.788;9.010;2023-05-10T02:31:28;34.83;;;2.77;;
179;SDS011;78;48.788;9.010;2023-05-10T02:33:54;17.00;;;2.00;;
179;SDS011;78;48.788;9.010;2023-05-10T02:36:21;13.47;;;2.10;;
179;SDS011;78;48.788;9.010;2023-05-10T02:38:47;15.37;;;2.00;;
179;SDS011;78;48.788;9.010;2023-05-10T02:41:14;14.03;;;2.20;;
179;SDS011;78;48.788;9.010;2023-05-10T02:43:40;13.90;;;2.07;;
179;SDS011;78;48.788;9.010;2023-05-10T02:46:07;14.20;;;2.10;;
179;SDS011;78;48.788;9.010;2023-05-10T02:48:33;13.80;;;2.20;;
179;SDS011;78;48.788;9.010;2023-05-10T02:51:00;16.47;;;2.30;;
179;SDS011;78;48.788;9.010;2023-05-10T02:53:33;14.10;;;2.27;;
179;SDS011;78;48.788;9.010;2023-05-10T02:56:00;20.33;;;2.50;;
179;SDS011;78;48.788;9.010;2023-05-10T02:58:28;19.80;;;2.73;;
179;SDS011;78;48.788;9.010;2023-05-10T03:00:54;14.07;;;2.50;;
179;SDS011;78;48.788;9.010;2023-05-10T03:03:20;15.30;;;2.50;;
179;SDS011;78;48.788;9.010;2023-05-10T03:05:47;15.37;;;2.90;;
179;SDS011;78;48.788;9.010;2023-05-10T03:08:12;15.13;;;2.87;;
179;SDS011;78;48.788;9.010;2023-05-10T03:10:41;15.00;;;2.90;;
179;SDS011;78;48.788;9.010;2023-05-10T03:13:31;15.73;;;3.00;;
179;SDS011;78;48.788;9.010;2023-05-10T03:19:06;14.53;;;2.60;;
179;SDS011;78;48.788;9.010;2023-05-10T03:21:32;14.13;;;2.63;;
179;SDS011;78;48.788;9.010;2023-05-10T03:23:59;14.93;;;2.73;;
179;SDS011;78;48.788;9.010;2023-05-10T03:26:28;14.03;;;2.50;;
179;SDS011;78;48.788;9.010;2023-05-10T03:28:55;15.67;;;2.60;;
179;SDS011;78;48.788;9.010;2023-05-10T03:31:21;14.03;;;2.60;;
179;SDS011;78;48.788;9.010;2023-05-10T03:33:50;14.60;;;2.60;;
179;SDS011;78;48.788;9.010;2023-05-10T03:36:17;17.10;;;2.90;;
179;SDS011;78;48.788;9.010;2023-05-10T03:38:43;13.73;;;2.20;;
179;SDS011;78;48.788;9.010;2023-05-10T03:41:09;15.67;;;2.50;;
179;SDS011;78;48.788;9.010;2023-05-10T03:43:35;14.13;;;2.40;;
179;SDS011;78;48.788;9.010;2023-05-10T03:46:02;13.90;;;2.20;;
179;SDS011;78;48.788;9.010;2023-05-10T03:48:28;13.77;;;2.37;;
179;SDS011;78;48.788;9.010;2023-05-10T03:50:55;14.40;;;2.50;;
179;SDS011;78;48.788;9.010;2023-05-10T03:53:21;20.37;;;2.57;;
179;SDS011;78;48.788;9.010;2023-05-10T03:55:47;14.93;;;2.97;;
179;SDS011;78;48.788;9.010;2023-05-10T03:58:13;18.23;;;2.80;;
179;SDS011;78;48.788;9.010;2023-05-10T04:00:40;14.40;;;2.70;;
179;SDS011;78;48.788;9.010;2023-05-10T04:03:10;14.70;;;3.00;;
179;SDS011;78;48.788;9.010;2023-05-10T04:05:36;14.30;;;2.60;;
179;SDS011;78;48.788;9.010;2023-05-10T04:08:02;14.83;;;2.80;;
179;SDS011;78;48.788;9.010;2023-05-10T04:10:28;15.20;;;2.60;;
179;SDS011;78;48.788;9.010;2023-05-10T04:12:54;14.50;;;2.80;;
179;SDS011;78;48.788;9.010;2023-05-10T04:15:20;17.47;;;2.40;;
179;SDS011;78;48.788;9.010;2023-05-10T04:17:47;18.97;;;2.73;;
179;SDS011;78;48.788;9.010;2023-05-10T04:20:13;19.23;;;2.53;;
179;SDS011;78;48.788;9.010;2023-05-10T04:22:39;14.50;;;2.40;;
179;SDS011;78;48.788;9.010;2023-05-10T04:25:05;14.77;;;2.53;;
179;SDS011;78;48.788;9.010;2023-05-10T04:27:32;18.13;;;2.80;;
179;SDS011;78;48.788;9.010;2023-05-10T04:29:58;14.67;;;2.63;;
179;SDS011;78;48.788;9.010;2023-05-10T04:32:24;14.93;;;2.60;;
179;SDS011;78;48.788;9.010;2023-05-10T04:34:50;14.10;;;2.40;;
179;SDS011;78;48.788;9.010;2023-05-10T04:37:17;17.20;;;2.63;;
179;SDS011;78;48.788;9.010;2023-05-10T04:39:43;15.23;;;2.50;;
179;SDS011;78;48.788;9.010;2023-05-10T04:42:09;14.40;;;2.80;;
179;SDS011;78;48.788;9.010;2023-05-10T04:44:35;20.33;;;2.43;;
179;SDS011;78;48.788;9.010;2023-05-10T04:47:01;15.23;;;2.73;;
179;SDS011;78;48.788;9.010;2023-05-10T04:49:28;19.90;;;2.80;;
179;SDS011;78;48.788;9.010;2023-05-10T04:51:54;14.23;;;2.30;;
179;SDS011;78;48.788;9.010;2023-05-10T04:54:20;14.07;;;2.40;;
179;SDS011;78;48.788;9.010;2023-05-10T04:56:46;15.17;;;2.70;;
179;SDS011;78;48.788;9.010;2023-05-10T04:59:12;19.37;;;2.70;;
179;SDS011;78;48.788;9.010;2023-05-10T05:01:39;20.33;;;2.70;;
179;SDS011;78;48.788;9.010;2023-05-10T05:04:05;14.70;;;2.63;;
179;SDS011;78;48.788;9.010;2023-05-10T05:06:31;15.60;;;2.70;;
179;SDS011;78;48.788;9.010;2023-05-10T05:08:57;14.40;;;2.70;;
179;SDS011;78;48.788;9.010;2023-05-10T05:11:23;18.30;;;2.80;;
179;SDS011;78;48.788;9.010;2023-05-10T05:13:50;13.80;;;2.40;;
179;SDS011;78;48.788;9.010;2023-05-10T05:16:16;16.00;;;2.60;;
179;SDS011;78;48.788;9.010;2023-05-10T05:18:42;14.30;;;2.57;;
179;SDS011;78;48.788;9.010;2023-05-10T05:21:14;15.33;;;2.40;;
179;SDS011;78;48.788;9.010;2023-05-10T05:23:41;15.53;;;2.80;;
179;SDS011;78;48.788;9.010;2023-05-10T05:26:07;17.80;;;3.50;;
179;SDS011;78;48.788;9.010;2023-05-10T05:28:33;19.93;;;3.40;;
179;SDS011;78;48.788;9.010;2023-05-10T05:31:02;17.20;;;3.00;;
179;SDS011;78;48.788;9.010;2023-05-10T05:33:28;14.57;;;2.70;;
179;SDS011;78;48.788;9.010;2023-05-10T05:35:54;16.20;;;3.00;;
179;SDS011;78;48.788;9.010;2023-05-10T05:38:20;15.10;;;2.80;;
179;SDS011;78;48.788;9.010;2023-05-10T05:40:46;15.17;;;3.07;;
179;SDS011;78;48.788;9.010;2023-05-10T05:43:12;14.20;;;2.50;;
179;SDS011;78;48.788;9.010;2023-05-10T05:45:38;14.67;;;2.63;;
179;SDS011;78;48.788;9.010;2023-05-10T05:48:04;20.10;;;2.90;;
179;SDS011;78;48.788;9.010;2023-05-10T05:50:30;15.43;;;2.50;;
179;SDS011;78;48.788;9.010;2023-05-10T05:52:56;16.27;;;2.53;;
179;SDS011;78;48.788;9.010;2023-05-10T05:55:22;13.70;;;2.37;;
179;SDS011;78;48.788;9.010;2023-05-10T05:57:49;17.70;;;2.73;;
179;SDS011;78;48.788;9.010;2023-05-10T06:00:15;14.50;;;2.60;;
179;SDS011;78;48.788;9.010;2023-05-10T06:02:42;17.20;;;2.90;;
179;SDS011;78;48.788;9.010;2023-05-10T06:05:08;20.40;;;3.37;;
179;SDS011;78;48.788;9.010;2023-05-10T06:07:34;15.93;;;3.30;;
179;SDS011;78;48.788;9.010;2023-05-10T06:10:01;16.13;;;2.90;;
179;SDS011;78;48.788;9.010;2023-05-10T06:12:28;16.70;;;2.80;;
179;SDS011;78;48.788;9.010;2023-05-10T06:14:54;16.73;;;2.70;;
179;SDS011;78;48.788;9.010;2023-05-10T06:17:20;17.90;;;2.50;;
179;SDS011;78;48.788;9.010;2023-05-10T06:19:47;22.97;;;3.70;;
179;SDS011;78;48.788;9.010;2023-05-10T06:22:14;15.80;;;3.40;;
179;SDS011;78;48.788;9.010;2023-05-10T06:24:40;20.43;;;2.90;;
179;SDS011;78;48.788;9.010;2023-05-10T06:27:06;16.23;;;3.27;;
179;SDS011;78;48.788;9.010;2023-05-10T06:29:33;14.97;;;3.10;;
179;SDS011;78;48.788;9.010;2023-05-10T06:31:59;15.70;;;3.33;;
179;SDS011;78;48.788;9.010;2023-05-10T06:34:26;15.50;;;3.30;;
179;SDS011;78;48.788;9.010;2023-05-10T06:36:52;16.27;;;3.53;;
179;SDS011;78;48.788;9.010;2023-05-10T06:39:18;15.80;;;2.90;;
179;SDS011;78;48.788;9.010;2023-05-10T06:41:44;15.80;;;3.20;;
179;SDS011;78;48.788;9.010;2023-05-10T06:44:10;17.67;;;3.43;;
179;SDS011;78;48.788;9.010;2023-05-10T06:46:37;15.27;;;3.20;;
179;SDS011;78;48.788;9.010;2023-05-10T06:49:04;17.13;;;3.30;;
179;SDS011;78;48.788;9.010;2023-05-10T06:51:30;15.50;;;3.20;;
179;SDS011;78;48.788;9.010;2023-05-10T06:53:58;17.50;;;3.00;;
179;SDS011;78;48.788;9.010;2023-05-10T06:56:24;16.90;;;3.50;;
179;SDS011;78;48.788;9.010;2023-05-10T06:58:50;14.73;;;2.80;;
179;SDS011;78;48.788;9.010;2023-05-10T07:01:16;18.30;;;3.47;;
179;SDS011;78;48.788;9.010;2023-05-10T07:03:42;16.47;;;3.10;;
179;SDS011;78;48.788;9.010;2023-05-10T07:06:08;17.70;;;3.40;;
179;SDS011;78;48.788;9.010;2023-05-10T07:08:35;16.70;;;3.20;;
179;SDS011;78;48.788;9.010;2023-05-10T07:11:05;16.73;;;3.13;;
179;SDS011;78;48.788;9.010;2023-05-10T07:13:35;16.20;;;3.10;;
179;SDS011;78;48.788;9.010;2023-05-10T07:16:01;21.40;;;3.47;;
179;SDS011;78;48.788;9.010;2023-05-10T07:18:27;16.00;;;3.17;;
179;SDS011;78;48.788;9.010;2023-05-10T07:20:53;22.43;;;3.03;;
179;SDS011;78;48.788;9.010;2023-05-10T07:23:20;16.40;;;2.83;;
179;SDS011;78;48.788;9.010;2023-05-10T07:25:46;14.70;;;3.03;;
179;SDS011;78;48.788;9.010;2023-05-10T07:28:13;20.90;;;3.10;;
179;SDS011;78;48.788;9.010;2023-05-10T07:30:39;16.17;;;2.93;;
179;SDS011;78;48.788;9.010;2023-05-10T07:33:05;15.57;;;2.80;;
179;SDS011;78;48.788;9.010;2023-05-10T07:35:32;14.30;;;2.50;;
179;SDS011;78;48.788;9.010;2023-05-10T07:37:58;16.30;;;2.67;;
179;SDS011;78;48.788;9.010;2023-05-10T07:40:24;14.80;;;2.90;;
179;SDS011;78;48.788;9.010;2023-05-10T07:42:50;15.43;;;2.40;;
179;SDS011;78;48.788;9.010;2023-05-10T07:45:16;14.50;;;2.43;;
179;SDS011;78;48.788;9.010;2023-05-10T07:47:42;15.60;;;2.40;;
179;SDS011;78;48.788;9.010;2023-05-10T07:50:08;15.03;;;2.53;;
179;SDS011;78;48.788;9.010;2023-05-10T07:52:34;19.10;;;2.30;;
179;SDS011;78;48.788;9.010;2023-05-10T07:55:00;13.57;;;2.00;;
179;SDS011;78;48.788;9.010;2023-05-10T07:57:26;14.10;;;2.27;;
179;SDS011;78;48.788;9.010;2023-05-10T07:59:52;14.20;;;2.30;;
179;SDS011;78;48.788;9.010;2023-05-10T08:02:19;14.60;;;2.30;;
179;SDS011;78;48.788;9.010;2023-05-10T08:04:45;15.00;;;2.20;;
179;SDS011;78;48.788;9.010;2023-05-10T08:07:11;13.93;;;2.00;;
179;SDS011;78;48.788;9.010;2023-05-10T08:09:37;15.43;;;2.10;;
179;SDS011;78;48.788;9.010;2023-05-10T08:12:03;13.67;;;2.00;;
179;SDS011;78;48.788;9.010;2023-05-10T08:14:29;13.67;;;2.00;;
179;SDS011;78;48.788;9.010;2023-05-10T08:16:55;14.20;;;1.87;;
179;SDS011;78;48.788;9.010;2023-05-10T08:19:21;15.00;;;2.00;;
179;SDS011;78;48.788;9.010;2023-05-10T08:21:47;15.10;;;2.10;;
179;SDS011;78;48.788;9.010;2023-05-10T08:24:14;13.53;;;1.93;;
179;SDS011;78;48.788;9.010;2023-05-10T08:26:40;14.70;;;2.10;;
179;SDS011;78;48.788;9.010;2023-05-10T08:29:06;14.00;;;2.00;;
179;SDS011;78;48.788;9.010;2023-05-10T08:31:32;13.90;;;1.90;;
179;SDS011;78;48.788;9.010;2023-05-10T08:33:58;14.10;;;1.90;;
179;SDS011;78;48.788;9.010;2023-05-10T08:36:24;15.37;;;1.87;;
179;SDS011;78;48.788;9.010;2023-05-10T08:38:50;14.23;;;1.90;;
179;SDS011;78;48.788;9.010;2023-05-10T08:41:20;14.90;;;1.87;;
179;SDS011;78;48.788;9.010;2023-05-10T08:43:46;13.93;;;2.03;;
179;SDS011;78;48.788;9.010;2023-05-10T08:46:15;14.00;;;1.80;;
179;SDS011;78;48.788;9.010;2023-05-10T08:48:45;16.23;;;2.07;;
179;SDS011;78;48.788;9.010;2023-05-10T08:51:15;13.43;;;1.70;;
179;SDS011;78;48.788;9.010;2023-05-10T08:53:43;14.20;;;1.90;;
179;SDS011;78;48.788;9.010;2023-05-10T08:56:09;13.60;;;1.73;;
179;SDS011;78;48.788;9.010;2023-05-10T08:58:35;14.40;;;1.80;;
179;SDS011;78;48.788;9.010;2023-05-10T09:01:02;15.10;;;1.80;;
179;SDS011;78;48.788;9.010;2023-05-10T09:03:29;13.70;;;1.70;;
179;SDS011;78;48.788;9.010;2023-05-10T09:05:55;13.83;;;1.70;;
179;SDS011;78;48.788;9.010;2023-05-10T09:08:25;16.20;;;1.83;;
179;SDS011;78;48.788;9.010;2023-05-10T09:10:51;14.30;;;1.80;;
179;SDS011;78;48.788;9.010;2023-05-10T09:13:17;13.80;;;1.70;;
179;SDS011;78;48.788;9.010;2023-05-10T09:15:44;14.57;;;1.80;;
179;SDS011;78;48.788;9.010;2023-05-10T09:18:11;15.27;;;2.00;;
179;SDS011;78;48.788;9.010;2023-05-10T09:20:37;15.50;;;1.80;;
179;SDS011;78;48.788;9.010;2023-05-10T09:23:03;14.93;;;1.80;;
179;SDS011;78;48.788;9.010;2023-05-10T09:25:29;14.83;;;1.70;;
179;SDS011;78;48.788;9.010;2023-05-10T09:27:58;16.17;;;1.70;;
179;SDS011;78;48.788;9.010;2023-05-10T09:32:51;13.60;;;1.73;;
179;SDS011;78;48.788;9.010;2023-05-10T09:35:18;18.40;;;1.80;;
179;SDS011;78;48.788;9.010;2023-05-10T09:37:45;18.63;;;1.77;;
179;SDS011;78;48.788;9.010;2023-05-10T09:40:16;15.00;;;1.90;;
179;SDS011;78;48.788;9.010;2023-05-10T09:42:43;13.50;;;1.70;;
179;SDS011;78;48.788;9.010;2023-05-10T09:45:16;14.90;;;1.83;;
179;SDS011;78;48.788;9.010;2023-05-10T09:47:42;13.33;;;1.70;;
179;SDS011;78;48.788;9.010;2023-05-10T09:50:09;13.60;;;1.80;;
179;SDS011;78;48.788;9.010;2023-05-10T09:55:20;15.90;;;1.90;;
179;SDS011;78;48.788;9.010;2023-05-10T09:57:46;15.60;;;1.70;;
179;SDS011;78;48.788;9.010;2023-05-10T10:00:16;14.03;;;1.70;;
179;SDS011;78;48.788;9.010;2023-05-10T10:02:44;13.30;;;1.67;;
179;SDS011;78;48.788;9.010;2023-05-10T10:05:11;14.47;;;1.73;;
179;SDS011;78;48.788;9.010;2023-05-10T10:07:37;18.57;;;1.80;;
179;SDS011;78;48.788;9.010;2023-05-10T10:10:03;14.80;;;1.70;;
179;SDS011;78;48.788;9.010;2023-05-10T10:12:30;13.27;;;1.70;;
179;SDS011;78;48.788;9.010;2023-05-10T10:14:56;17.53;;;1.83;;
179;SDS011;78;48.788;9.010;2023-05-10T10:17:23;16.00;;;1.97;;
179;SDS011;78;48.788;9.010;2023-05-10T10:19:50;16.60;;;2.00;;
179;SDS011;78;48.788;9.010;2023-05-10T10:22:16;13.37;;;1.70;;
179;SDS011;78;48.788;9.010;2023-05-10T10:24:42;15.20;;;2.00;;
179;SDS011;78;48.788;9.010;2023-05-10T10:27:12;13.50;;;1.73;;
179;SDS011;78;48.788;9.010;2023-05-10T10:30:02;14.20;;;2.03;;
179;SDS011;78;48.788;9.010;2023-05-10T10:32:35;13.77;;;1.80;;
179;SDS011;78;48.788;9.010;2023-05-10T10:35:03;14.20;;;1.80;;
179;SDS011;78;48.788;9.010;2023-05-10T10:37:45;18.73;;;2.00;;
179;SDS011;78;48.788;9.010;2023-05-10T10:40:27;14.43;;;1.70;;
179;SDS011;78;48.788;9.010;2023-05-10T10:42:54;17.40;;;1.90;;
179;SDS011;78;48.788;9.010;2023-05-10T10:45:21;17.30;;;1.63;;
179;SDS011;78;48.788;9.010;2023-05-10T10:47:47;14.90;;;1.90;;
179;SDS011;78;48.788;9.010;2023-05-10T10:50:13;14.77;;;1.80;;
179;SDS011;78;48.788;9.010;2023-05-10T10:52:41;14.00;;;1.60;;
179;SDS011;78;48.788;9.010;2023-05-10T10:55:08;13.57;;;1.70;;
179;SDS011;78;48.788;9.010;2023-05-10T11:02:45;13.70;;;1.70;;
179;SDS011;78;48.788;9.010;2023-05-10T11:10:40;15.20;;;1.80;;
179;SDS011;78;48.788;9.010;2023-05-10T11:13:07;15.37;;;1.90;;
179;SDS011;78;48.788;9.010;2023-05-10T11:15:34;15.90;;;2.00;;
179;SDS011;78;48.788;9.010;2023-05-10T11:20:42;16.20;;;1.90;;
179;SDS011;78;48.788;9.010;2023-05-10T11:23:12;13.83;;;1.70;;
179;SDS011;78;48.788;9.010;2023-05-10T11:25:41;14.77;;;1.90;;
179;SDS011;78;48.788;9.010;2023-05-10T11:28:07;15.23;;;1.90;;
179;SDS011;78;48.788;9.010;2023-05-10T11:30:34;13.70;;;1.87;;
179;SDS011;78;48.788;9.010;2023-05-10T11:33:00;15.40;;;2.00;;
179;SDS011;78;48.788;9.010;2023-05-10T11:35:27;15.47;;;2.00;;
179;SDS011;78;48.788;9.010;2023-05-10T11:37:53;14.00;;;2.00;;
179;SDS011;78;48.788;9.010;2023-05-10T11:40:21;17.90;;;2.40;;
179;SDS011;78;48.788;9.010;2023-05-10T11:42:49;14.77;;;2.30;;
179;SDS011;78;48.788;9.010;2023-05-10T11:45:15;17.17;;;2.30;;
179;SDS011;78;48.788;9.010;2023-05-10T11:47:43;14.50;;;2.20;;
179;SDS011;78;48.788;9.010;2023-05-10T11:50:10;16.73;;;2.30;;
179;SDS011;78;48.788;9.010;2023-05-10T11:52:36;15.30;;;2.40;;
179;SDS011;78;48.788;9.010;2023-05-10T11:55:02;14.33;;;2.20;;
179;SDS011;78;48.788;9.010;2023-05-10T11:57:28;18.47;;;2.40;;
179;SDS011;78;48.788;9.010;2023-05-10T11:59:56;19.03;;;2.37;;
179;SDS011;78;48.788;9.010;2023-05-10T12:02:22;15.63;;;2.23;;
179;SDS011;78;48.788;9.010;2023-05-10T12:04:48;17.10;;;2.00;;
179;SDS011;78;48.788;9.010;2023-05-10T12:07:15;15.57;;;2.40;;
179;SDS011;78;48.788;9.010;2023-05-10T12:09:44;14.80;;;2.20;;
179;SDS011;78;48.788;9.010;2023-05-10T12:12:15;14.57;;;2.17;;
179;SDS011;78;48.788;9.010;2023-05-10T12:14:41;15.90;;;2.13;;
179;SDS011;78;48.788;9.010;2023-05-10T12:17:11;16.87;;;2.03;;
179;SDS011;78;48.788;9.010;2023-05-10T12:19:38;18.20;;;2.10;;
179;SDS011;78;48.788;9.010;2023-05-10T12:22:05;15.80;;;2.10;;
179;SDS011;78;48.788;9.010;2023-05-10T12:24:33;14.70;;;2.20;;
179;SDS011;78;48.788;9.010;2023-05-10T12:26:59;16.70;;;2.00;;
179;SDS011;78;48.788;9.010;2023-05-10T12:29:25;17.07;;;2.30;;
179;SDS011;78;48.788;9.010;2023-05-10T12:31:51;14.87;;;2.30;;
179;SDS011;78;48.788;9.010;2023-05-10T12:34:31;18.70;;;2.30;;
179;SDS011;78;48.788;9.010;2023-05-10T12:36:58;18.47;;;2.13;;
179;SDS011;78;48.788;9.010;2023-05-10T12:39:24;14.63;;;2.30;;
179;SDS011;78;48.788;9.010;2023-05-10T12:41:51;15.00;;;2.40;;
179;SDS011;78;48.788;9.010;2023-05-10T12:44:17;16.93;;;2.20;;
179;SDS011;78;48.788;9.010;2023-05-10T12:46:43;16.47;;;2.20;;
179;SDS011;78;48.788;9.010;2023-05-10T12:49:09;18.13;;;2.00;;
179;SDS011;78;48.788;9.010;2023-05-10T12:51:35;15.87;;;2.27;;
179;SDS011;78;48.788;9.010;2023-05-10T12:54:02;14.20;;;2.10;;
179;SDS011;78;48.788;9.010;2023-05-10T12:56:28;16.73;;;2.17;;
179;SDS011;78;48.788;9.010;2023-05-10T12:58:54;16.30;;;2.20;;
179;SDS011;78;48.788;9.010;2023-05-10T13:01:20;18.23;;;2.40;;
179;SDS011;78;48.788;9.010;2023-05-10T13:03:46;15.77;;;2.27;;
179;SDS011;78;48.788;9.010;2023-05-10T13:06:13;15.40;;;2.90;;
179;SDS011;78;48.788;9.010;2023-05-10T13:08:39;15.50;;;2.20;;
179;SDS011;78;48.788;9.010;2023-05-10T13:11:05;14.50;;;2.20;;
179;SDS011;78;48.788;9.010;2023-05-10T13:13:31;16.10;;;2.27;;
179;SDS011;78;48.788;9.010;2023-05-10T13:15:57;13.83;;;2.10;;
179;SDS011;78;48.788;9.010;2023-05-10T13:18:23;16.10;;;2.20;;
179;SDS011;78;48.788;9.010;2023-05-10T13:20:49;14.57;;;2.13;;
179;SDS011;78;48.788;9.010;2023-05-10T13:23:15;14.00;;;2.03;;
179;SDS011;78;48.788;9.010;2023-05-10T13:25:41;14.90;;;2.33;;
179;SDS011;78;48.788;9.010;2023-05-10T13:28:07;15.50;;;2.10;;
179;SDS011;78;48.788;9.010;2023-05-10T13:30:33;15.20;;;2.20;;
179;SDS011;78;48.788;9.010;2023-05-10T13:32:59;18.70;;;2.20;;
179;SDS011;78;48.788;9.010;2023-05-10T13:35:25;14.73;;;2.30;;
179;SDS011;78;48.788;9.010;2023-05-10T13:37:51;14.70;;;2.00;;
179;SDS011;78;48.788;9.010;2023-05-10T13:40:18;18.87;;;2.20;;
179;SDS011;78;48.788;9.010;2023-05-10T13:42:44;14.40;;;2.00;;
179;SDS011;78;48.788;9.010;2023-05-10T13:45:10;15.50;;;2.17;;
179;SDS011;78;48.788;9.010;2023-05-10T13:47:37;14.20;;;2.13;;
179;SDS011;78;48.788;9.010;2023-05-10T13:50:03;17.20;;;2.03;;
179;SDS011;78;48.788;9.010;2023-05-10T13:52:29;15.57;;;2.10;;
179;SDS011;78;48.788;9.010;2023-05-10T13:54:55;15.30;;;2.00;;
179;SDS011;78;48.788;9.010;2023-05-10T13:57:22;15.00;;;2.30;;
179;SDS011;78;48.788;9.010;2023-05-10T13:59:49;15.67;;;2.40;;
179;SDS011;78;48.788;9.010;2023-05-10T14:02:15;14.53;;;2.10;;
179;SDS011;78;48.788;9.010;2023-05-10T14:04:41;14.90;;;2.30;;
179;SDS011;78;48.788;9.010;2023-05-10T14:07:08;16.23;;;2.73;;
179;SDS011;78;48.788;9.010;2023-05-10T14:09:35;15.53;;;2.60;;
179;SDS011;78;48.788;9.010;2023-05-10T14:12:02;16.40;;;2.20;;
179;SDS011;78;48.788;9.010;2023-05-10T14:14:28;14.57;;;2.00;;
179;SDS011;78;48.788;9.010;2023-05-10T14:16:55;16.30;;;2.10;;
179;SDS011;78;48.788;9.010;2023-05-10T14:19:21;16.87;;;2.20;;
179;SDS011;78;48.788;9.010;2023-05-10T14:21:48;14.80;;;2.17;;
179;SDS011;78;48.788;9.010;2023-05-10T14:24:14;15.37;;;2.17;;
179;SDS011;78;48.788;9.010;2023-05-10T14:26:41;14.47;;;2.20;;
179;SDS011;78;48.788;9.010;2023-05-10T14:29:08;15.00;;;2.33;;
179;SDS011;78;48.788;9.010;2023-05-10T14:31:34;19.33;;;2.90;;
179;SDS011;78;48.788;9.010;2023-05-10T14:34:00;17.07;;;2.30;;
179;SDS011;78;48.788;9.010;2023-05-10T14:36:27;18.37;;;2.67;;
179;SDS011;78;48.788;9.010;2023-05-10T14:38:54;15.80;;;2.27;;
179;SDS011;78;48.788;9.010;2023-05-10T14:41:20;16.33;;;2.03;;
179;SDS011;78;48.788;9.010;2023-05-10T14:43:47;24.53;;;3.17;;
179;SDS011;78;48.788;9.010;2023-05-10T14:46:13;15.80;;;3.03;;
179;SDS011;78;48.788;9.010;2023-05-10T14:48:40;19.60;;;2.53;;
179;SDS011;78;48.788;9.010;2023-05-10T14:51:06;18.63;;;2.20;;
179;SDS011;78;48.788;9.010;2023-05-10T14:53:32;14.43;;;2.20;;
179;SDS011;78;48.788;9.010;2023-05-10T14:55:58;14.33;;;2.10;;
179;SDS011;78;48.788;9.010;2023-05-10T14:58:26;16.87;;;2.00;;
179;SDS011;78;48.788;9.010;2023-05-10T15:00:52;15.37;;;2.13;;
179;SDS011;78;48.788;9.010;2023-05-10T15:03:19;16.00;;;2.27;;
179;SDS011;78;48.788;9.010;2023-05-10T15:05:46;15.80;;;2.00;;
179;SDS011;78;48.788;9.010;2023-05-10T15:08:12;13.80;;;1.90;;
179;SDS011;78;48.788;9.010;2023-05-10T15:10:39;14.30;;;2.00;;
179;SDS011;78;48.788;9.010;2023-05-10T15:13:06;14.77;;;2.10;;
179;SDS011;78;48.788;9.010;2023-05-10T15:15:32;15.60;;;2.13;;
179;SDS011;78;48.788;9.010;2023-05-10T15:17:59;16.47;;;2.20;;
179;SDS011;78;48.788;9.010;2023-05-10T15:20:25;16.83;;;2.00;;
179;SDS011;78;48.788;9.010;2023-05-10T15:22:52;14.63;;;1.80;;
179;SDS011;78;48.788;9.010;2023-05-10T15:25:18;16.50;;;2.00;;
179;SDS011;78;48.788;9.010;2023-05-10T15:27:44;15.07;;;2.00;;
179;SDS011;78;48.788;9.010;2023-05-10T15:30:10;16.10;;;2.00;;
179;SDS011;78;48.788;9.010;2023-05-10T15:32:37;18.33;;;1.90;;
179;SDS011;78;48.788;9.010;2023-05-10T15:35:07;14.63;;;2.10;;
179;SDS011;78;48.788;9.010;2023-05-10T15:37:34;13.47;;;1.70;;
179;SDS011;78;48.788;9.010;2023-05-10T15:40:00;13.67;;;1.80;;
179;SDS011;78;48.788;9.010;2023-05-10T15:42:32;13.93;;;2.00;;
179;SDS011;78;48.788;9.010;2023-05-10T15:44:58;14.33;;;1.80;;
179;SDS011;78;48.788;9.010;2023-05-10T15:47:25;14.67;;;1.80;;
179;SDS011;78;48.788;9.010;2023-05-10T15:49:51;13.60;;;1.80;;
179;SDS011;78;48.788;9.010;2023-05-10T15:52:17;16.50;;;2.13;;
179;SDS011;78;48.788;9.010;2023-05-10T15:54:46;13.47;;;1.70;;
179;SDS011;78;48.788;9.010;2023-05-10T15:57:12;13.60;;;1.83;;
179;SDS011;78;48.788;9.010;2023-05-10T15:59:38;16.50;;;1.70;;
179;SDS011;78;48.788;9.010;2023-05-10T16:02:04;13.87;;;1.83;;
179;SDS011;78;48.788;9.010;2023-05-10T16:04:30;15.90;;;1.90;;
179;SDS011;78;48.788;9.010;2023-05-10T16:06:57;13.10;;;1.70;;
179;SDS011;78;48.788;9.010;2023-05-10T16:09:23;14.40;;;1.60;;
179;SDS011;78;48.788;9.010;2023-05-10T16:11:49;13.60;;;1.70;;
179;SDS011;78;48.788;9.010;2023-05-10T16:14:15;14.87;;;1.70;;
179;SDS011;78;48.788;9.010;2023-05-10T16:16:41;14.30;;;1.90;;
179;SDS011;78;48.788;9.010;2023-05-10T16:19:07;14.13;;;1.70;;